EDFM/MHG METAR and TAF weather

Enter ICAO airport designator
Station Type Date Time Source
EDFM METAR 2021/07/26 15:50 UTC NOAA

EDFM 261550Z 13006KT 090V170 9999 VCSH FEW042TCU SCT060 BKN084 23/18 Q1012


Station Type Date Time Source
EDFM Decoded METAR 2021/07/26 15:50 UTC NOAA

Baden Wurttemberg, Neuostheim, Germany (EDFM) 49-28-21N 008-30-56E
Jul 26, 2021 - 11:50 AM EDT / 2021.07.26 1550 UTC
Wind: from the SE (130 degrees) at 7 MPH (6 KT) (direction variable):0
Visibility: greater than 7 mile(s):0
Sky conditions: mostly cloudy
Weather: showers in the vicinity; Towering cumulus clouds observed
Temperature: 73 F (23 C)
Dew Point: 64 F (18 C)
Relative Humidity: 73%
Pressure (altimeter): 29.88 in. Hg (1012 hPa)
ob: EDFM 261550Z 13006KT 090V170 9999 VCSH FEW042TCU SCT060 BKN084 23/18 Q1012
cycle: 16

Station Type Date Time Source
EDFM TAF 2012/03/06 06:30 UTC NOAA

TAF EDFM 060519Z 0606/0621 15004KT 9999 FEW040

Example: see airport list